Verona, Canada
Current Conditions -  °F | °C
As of 7:00 AM on Monday 22 Dec 2014 (Local Time) from CYGK Reporting Station
Light Snow Light Snow  
Wind Chill:   Ceiling: 2800
Heat Index: 21°   Visibility: 5mi
Dew Point: 19°   Wind: 14mph
Humidity: 93%   Direction: 50°NE
Pressure: 30.33"   Gusts: NA
Location:  44.48°N, 76.68°W
Report Text: CYGK 221200Z 05012KT 5SM -SN BR FEW004 OVC028 M06/M07 A3033 RMK SF1SC7 SLP275
Loading
Personal Weather Stations






























Interactive Weather Map New forecast layout! Learn more

10-Day Weather Forecast

Advertisements
Track Severe Weather on mobile